Terminal Aerodrome Forecast
Issued by NWS

Home | Current Version | Previous Version | Text Only | Print | Product List | Glossary On
Versions: 1 2 3 4 5 6 7 8 9 10 11 12 13 14 15 16 17 18 19
000
FTUS41 KBOX 231724
TAFHYA
TAF
KHYA 231724Z 2318/2418 11009G15KT P6SM SCT025 BKN120
     FM231900 14009KT P6SM VCSH OVC070
     FM232100 14008KT P6SM -RA OVC025
     FM232300 15009KT 6SM -RA OVC015
     FM240200 17008KT 4SM BR VCSH OVC008
     FM240500 23010KT 2SM BR OVC003
     FM240700 25011KT 2SM BR OVC045
     FM241000 26009KT P6SM BKN130=

USA.gov is the U.S. government's official web portal to all federal, state and local government web resources and services.